sensor_id;sensor_type;location;lat;lon;timestamp;P1;durP1;ratioP1;P2;durP2;ratioP2
60641;SDS011;46837;52.446;-1.930;2024-03-08T00:00:11;33.74;;;21.12;;
60641;SDS011;46837;52.446;-1.930;2024-03-08T00:01:07;34.42;;;20.06;;
60641;SDS011;46837;52.446;-1.930;2024-03-08T00:02:07;29.14;;;20.56;;
60641;SDS011;46837;52.446;-1.930;2024-03-08T00:03:07;32.96;;;20.46;;
60641;SDS011;46837;52.446;-1.930;2024-03-08T00:04:07;34.98;;;20.92;;
60641;SDS011;46837;52.446;-1.930;2024-03-08T00:05:07;38.44;;;23.80;;
60641;SDS011;46837;52.446;-1.930;2024-03-08T00:06:07;32.04;;;21.66;;
60641;SDS011;46837;52.446;-1.930;2024-03-08T00:07:07;28.12;;;18.82;;
60641;SDS011;46837;52.446;-1.930;2024-03-08T00:08:07;33.48;;;19.80;;
60641;SDS011;46837;52.446;-1.930;2024-03-08T00:09:08;31.70;;;21.78;;
60641;SDS011;46837;52.446;-1.930;2024-03-08T00:10:07;34.56;;;22.00;;
60641;SDS011;46837;52.446;-1.930;2024-03-08T00:11:07;25.06;;;17.08;;
60641;SDS011;46837;52.446;-1.930;2024-03-08T00:12:07;31.08;;;20.38;;
60641;SDS011;46837;52.446;-1.930;2024-03-08T00:13:07;31.44;;;19.68;;
60641;SDS011;46837;52.446;-1.930;2024-03-08T00:14:08;27.48;;;19.62;;
60641;SDS011;46837;52.446;-1.930;2024-03-08T00:15:07;32.90;;;20.94;;
60641;SDS011;46837;52.446;-1.930;2024-03-08T00:16:07;28.50;;;20.32;;
60641;SDS011;46837;52.446;-1.930;2024-03-08T00:17:07;32.46;;;20.74;;
60641;SDS011;46837;52.446;-1.930;2024-03-08T00:18:07;31.14;;;19.34;;
60641;SDS011;46837;52.446;-1.930;2024-03-08T00:19:07;32.28;;;20.08;;
60641;SDS011;46837;52.446;-1.930;2024-03-08T00:20:09;33.98;;;21.78;;
60641;SDS011;46837;52.446;-1.930;2024-03-08T00:21:07;32.58;;;20.44;;
60641;SDS011;46837;52.446;-1.930;2024-03-08T00:22:07;26.44;;;19.08;;
60641;SDS011;46837;52.446;-1.930;2024-03-08T00:23:07;28.52;;;19.06;;
60641;SDS011;46837;52.446;-1.930;2024-03-08T00:24:07;31.76;;;21.62;;
60641;SDS011;46837;52.446;-1.930;2024-03-08T00:25:07;31.82;;;22.34;;
60641;SDS011;46837;52.446;-1.930;2024-03-08T00:26:07;30.06;;;19.78;;
60641;SDS011;46837;52.446;-1.930;2024-03-08T00:27:07;34.46;;;21.74;;
60641;SDS011;46837;52.446;-1.930;2024-03-08T00:28:07;34.30;;;21.64;;
60641;SDS011;46837;52.446;-1.930;2024-03-08T00:29:07;36.68;;;21.72;;
60641;SDS011;46837;52.446;-1.930;2024-03-08T00:30:07;39.50;;;21.76;;
60641;SDS011;46837;52.446;-1.930;2024-03-08T00:31:07;35.22;;;19.28;;
60641;SDS011;46837;52.446;-1.930;2024-03-08T00:32:07;30.32;;;21.46;;
60641;SDS011;46837;52.446;-1.930;2024-03-08T00:33:07;41.68;;;23.72;;
60641;SDS011;46837;52.446;-1.930;2024-03-08T00:34:07;37.06;;;21.46;;
60641;SDS011;46837;52.446;-1.930;2024-03-08T00:35:08;36.56;;;22.28;;
60641;SDS011;46837;52.446;-1.930;2024-03-08T00:36:07;46.82;;;23.52;;
60641;SDS011;46837;52.446;-1.930;2024-03-08T00:37:07;39.72;;;22.80;;
60641;SDS011;46837;52.446;-1.930;2024-03-08T00:38:07;40.30;;;22.48;;
60641;SDS011;46837;52.446;-1.930;2024-03-08T00:39:07;33.06;;;21.22;;
60641;SDS011;46837;52.446;-1.930;2024-03-08T00:40:07;33.78;;;21.04;;
60641;SDS011;46837;52.446;-1.930;2024-03-08T00:41:07;34.26;;;22.94;;
60641;SDS011;46837;52.446;-1.930;2024-03-08T00:42:07;36.76;;;23.50;;
60641;SDS011;46837;52.446;-1.930;2024-03-08T00:43:07;32.22;;;21.26;;
60641;SDS011;46837;52.446;-1.930;2024-03-08T00:44:07;31.62;;;21.28;;
60641;SDS011;46837;52.446;-1.930;2024-03-08T00:45:07;35.22;;;22.66;;
60641;SDS011;46837;52.446;-1.930;2024-03-08T00:46:07;37.12;;;21.88;;
60641;SDS011;46837;52.446;-1.930;2024-03-08T00:47:07;37.68;;;23.06;;
60641;SDS011;46837;52.446;-1.930;2024-03-08T00:48:07;40.64;;;22.58;;
60641;SDS011;46837;52.446;-1.930;2024-03-08T00:49:07;37.70;;;22.54;;
60641;SDS011;46837;52.446;-1.930;2024-03-08T00:50:07;35.82;;;23.96;;
60641;SDS011;46837;52.446;-1.930;2024-03-08T00:51:07;35.72;;;22.56;;
60641;SDS011;46837;52.446;-1.930;2024-03-08T00:52:08;39.48;;;23.66;;
60641;SDS011;46837;52.446;-1.930;2024-03-08T00:53:07;37.44;;;22.84;;
60641;SDS011;46837;52.446;-1.930;2024-03-08T00:54:07;36.42;;;22.38;;
60641;SDS011;46837;52.446;-1.930;2024-03-08T00:55:07;40.24;;;25.22;;
60641;SDS011;46837;52.446;-1.930;2024-03-08T00:56:09;41.26;;;22.06;;
60641;SDS011;46837;52.446;-1.930;2024-03-08T00:57:07;34.70;;;22.40;;
60641;SDS011;46837;52.446;-1.930;2024-03-08T00:58:07;33.74;;;23.14;;
60641;SDS011;46837;52.446;-1.930;2024-03-08T00:59:07;34.68;;;21.38;;
60641;SDS011;46837;52.446;-1.930;2024-03-08T01:00:10;37.86;;;21.96;;
60641;SDS011;46837;52.446;-1.930;2024-03-08T01:01:07;36.54;;;24.86;;
60641;SDS011;46837;52.446;-1.930;2024-03-08T01:02:07;38.46;;;24.56;;
60641;SDS011;46837;52.446;-1.930;2024-03-08T01:03:07;36.94;;;23.54;;
60641;SDS011;46837;52.446;-1.930;2024-03-08T01:04:07;39.28;;;23.90;;
60641;SDS011;46837;52.446;-1.930;2024-03-08T01:05:08;32.14;;;22.90;;
60641;SDS011;46837;52.446;-1.930;2024-03-08T01:06:07;39.10;;;23.80;;
60641;SDS011;46837;52.446;-1.930;2024-03-08T01:07:07;35.80;;;24.16;;
60641;SDS011;46837;52.446;-1.930;2024-03-08T01:08:07;36.30;;;23.46;;
60641;SDS011;46837;52.446;-1.930;2024-03-08T01:09:07;51.12;;;27.04;;
60641;SDS011;46837;52.446;-1.930;2024-03-08T01:10:10;43.16;;;25.74;;
60641;SDS011;46837;52.446;-1.930;2024-03-08T01:11:07;35.70;;;23.78;;
60641;SDS011;46837;52.446;-1.930;2024-03-08T01:12:08;41.58;;;24.68;;
60641;SDS011;46837;52.446;-1.930;2024-03-08T01:13:09;48.76;;;25.78;;
60641;SDS011;46837;52.446;-1.930;2024-03-08T01:14:07;40.88;;;25.72;;
60641;SDS011;46837;52.446;-1.930;2024-03-08T01:15:07;44.74;;;25.96;;
60641;SDS011;46837;52.446;-1.930;2024-03-08T01:16:07;41.52;;;24.10;;
60641;SDS011;46837;52.446;-1.930;2024-03-08T01:17:07;38.74;;;24.72;;
60641;SDS011;46837;52.446;-1.930;2024-03-08T01:18:07;44.88;;;26.78;;
60641;SDS011;46837;52.446;-1.930;2024-03-08T01:19:07;39.64;;;25.54;;
60641;SDS011;46837;52.446;-1.930;2024-03-08T01:20:07;43.04;;;27.28;;
60641;SDS011;46837;52.446;-1.930;2024-03-08T01:21:07;42.32;;;25.84;;
60641;SDS011;46837;52.446;-1.930;2024-03-08T01:22:07;41.20;;;26.04;;
60641;SDS011;46837;52.446;-1.930;2024-03-08T01:23:08;39.12;;;25.44;;
60641;SDS011;46837;52.446;-1.930;2024-03-08T01:24:07;41.98;;;26.34;;
60641;SDS011;46837;52.446;-1.930;2024-03-08T01:25:07;41.94;;;26.30;;
60641;SDS011;46837;52.446;-1.930;2024-03-08T01:26:07;40.38;;;25.98;;
60641;SDS011;46837;52.446;-1.930;2024-03-08T01:27:07;33.92;;;23.28;;
60641;SDS011;46837;52.446;-1.930;2024-03-08T01:28:07;38.06;;;23.58;;
60641;SDS011;46837;52.446;-1.930;2024-03-08T01:29:07;44.28;;;25.84;;
60641;SDS011;46837;52.446;-1.930;2024-03-08T01:30:07;44.92;;;28.14;;
60641;SDS011;46837;52.446;-1.930;2024-03-08T01:31:07;40.10;;;24.80;;
60641;SDS011;46837;52.446;-1.930;2024-03-08T01:32:07;46.28;;;27.02;;
60641;SDS011;46837;52.446;-1.930;2024-03-08T01:33:07;44.90;;;28.06;;
60641;SDS011;46837;52.446;-1.930;2024-03-08T01:34:07;42.46;;;26.60;;
60641;SDS011;46837;52.446;-1.930;2024-03-08T01:35:07;45.52;;;29.28;;
60641;SDS011;46837;52.446;-1.930;2024-03-08T01:36:07;51.64;;;27.88;;
60641;SDS011;46837;52.446;-1.930;2024-03-08T01:37:07;46.68;;;27.20;;
60641;SDS011;46837;52.446;-1.930;2024-03-08T01:38:07;40.92;;;24.74;;
60641;SDS011;46837;52.446;-1.930;2024-03-08T01:39:08;47.10;;;27.04;;
60641;SDS011;46837;52.446;-1.930;2024-03-08T01:40:07;45.86;;;27.12;;
60641;SDS011;46837;52.446;-1.930;2024-03-08T01:41:07;47.32;;;27.34;;
60641;SDS011;46837;52.446;-1.930;2024-03-08T01:42:07;44.22;;;27.84;;
60641;SDS011;46837;52.446;-1.930;2024-03-08T01:44:08;45.84;;;28.90;;
60641;SDS011;46837;52.446;-1.930;2024-03-08T01:45:07;47.30;;;26.18;;
60641;SDS011;46837;52.446;-1.930;2024-03-08T01:46:07;44.24;;;28.30;;
60641;SDS011;46837;52.446;-1.930;2024-03-08T01:47:07;44.32;;;28.44;;
60641;SDS011;46837;52.446;-1.930;2024-03-08T01:48:07;39.98;;;26.38;;
60641;SDS011;46837;52.446;-1.930;2024-03-08T01:49:07;42.82;;;27.32;;
60641;SDS011;46837;52.446;-1.930;2024-03-08T01:50:07;47.26;;;26.28;;
60641;SDS011;46837;52.446;-1.930;2024-03-08T01:51:07;42.32;;;27.58;;
60641;SDS011;46837;52.446;-1.930;2024-03-08T01:52:07;46.64;;;28.90;;
60641;SDS011;46837;52.446;-1.930;2024-03-08T01:53:07;50.04;;;28.98;;
60641;SDS011;46837;52.446;-1.930;2024-03-08T01:54:07;50.46;;;29.84;;
60641;SDS011;46837;52.446;-1.930;2024-03-08T01:55:07;51.66;;;30.24;;
60641;SDS011;46837;52.446;-1.930;2024-03-08T01:56:07;43.12;;;28.40;;
60641;SDS011;46837;52.446;-1.930;2024-03-08T01:57:07;54.72;;;29.94;;
60641;SDS011;46837;52.446;-1.930;2024-03-08T01:58:07;44.98;;;29.58;;
60641;SDS011;46837;52.446;-1.930;2024-03-08T01:59:08;49.54;;;29.78;;
60641;SDS011;46837;52.446;-1.930;2024-03-08T02:00:07;47.70;;;28.28;;
60641;SDS011;46837;52.446;-1.930;2024-03-08T02:01:07;41.12;;;27.20;;
60641;SDS011;46837;52.446;-1.930;2024-03-08T02:02:07;49.86;;;31.42;;
60641;SDS011;46837;52.446;-1.930;2024-03-08T02:03:07;47.16;;;27.02;;
60641;SDS011;46837;52.446;-1.930;2024-03-08T02:04:08;50.02;;;30.10;;
60641;SDS011;46837;52.446;-1.930;2024-03-08T02:05:07;48.44;;;30.64;;
60641;SDS011;46837;52.446;-1.930;2024-03-08T02:06:11;43.70;;;25.38;;
60641;SDS011;46837;52.446;-1.930;2024-03-08T02:07:07;53.86;;;30.56;;
60641;SDS011;46837;52.446;-1.930;2024-03-08T02:08:08;57.28;;;34.12;;
60641;SDS011;46837;52.446;-1.930;2024-03-08T02:09:07;53.30;;;30.38;;
60641;SDS011;46837;52.446;-1.930;2024-03-08T02:10:07;50.68;;;32.90;;
60641;SDS011;46837;52.446;-1.930;2024-03-08T02:11:07;47.34;;;29.48;;
60641;SDS011;46837;52.446;-1.930;2024-03-08T02:12:07;51.52;;;31.70;;
60641;SDS011;46837;52.446;-1.930;2024-03-08T02:13:07;52.76;;;30.60;;
60641;SDS011;46837;52.446;-1.930;2024-03-08T02:14:07;51.30;;;32.48;;
60641;SDS011;46837;52.446;-1.930;2024-03-08T02:15:07;56.32;;;33.88;;
60641;SDS011;46837;52.446;-1.930;2024-03-08T02:16:08;51.96;;;32.46;;
60641;SDS011;46837;52.446;-1.930;2024-03-08T02:17:07;50.36;;;33.76;;
60641;SDS011;46837;52.446;-1.930;2024-03-08T02:18:07;60.16;;;32.22;;
60641;SDS011;46837;52.446;-1.930;2024-03-08T02:19:07;52.80;;;33.58;;
60641;SDS011;46837;52.446;-1.930;2024-03-08T02:20:07;53.50;;;33.48;;
60641;SDS011;46837;52.446;-1.930;2024-03-08T02:21:07;56.30;;;31.96;;
60641;SDS011;46837;52.446;-1.930;2024-03-08T02:22:07;51.16;;;31.14;;
60641;SDS011;46837;52.446;-1.930;2024-03-08T02:23:07;50.74;;;33.52;;
60641;SDS011;46837;52.446;-1.930;2024-03-08T02:24:07;52.84;;;33.52;;
60641;SDS011;46837;52.446;-1.930;2024-03-08T02:25:07;54.20;;;35.46;;
60641;SDS011;46837;52.446;-1.930;2024-03-08T02:26:07;59.02;;;36.98;;
60641;SDS011;46837;52.446;-1.930;2024-03-08T02:27:07;57.62;;;34.46;;
60641;SDS011;46837;52.446;-1.930;2024-03-08T02:28:07;55.12;;;35.74;;
60641;SDS011;46837;52.446;-1.930;2024-03-08T02:29:07;52.64;;;34.74;;
60641;SDS011;46837;52.446;-1.930;2024-03-08T02:30:07;61.52;;;32.88;;
60641;SDS011;46837;52.446;-1.930;2024-03-08T02:31:09;58.28;;;35.38;;
60641;SDS011;46837;52.446;-1.930;2024-03-08T02:32:07;56.72;;;36.40;;
60641;SDS011;46837;52.446;-1.930;2024-03-08T02:33:07;54.76;;;33.62;;
60641;SDS011;46837;52.446;-1.930;2024-03-08T02:34:07;58.04;;;34.34;;
60641;SDS011;46837;52.446;-1.930;2024-03-08T02:35:07;51.36;;;34.12;;
60641;SDS011;46837;52.446;-1.930;2024-03-08T02:36:07;56.04;;;35.02;;
60641;SDS011;46837;52.446;-1.930;2024-03-08T02:37:07;62.40;;;35.24;;
60641;SDS011;46837;52.446;-1.930;2024-03-08T02:38:07;55.52;;;33.40;;
60641;SDS011;46837;52.446;-1.930;2024-03-08T02:39:08;54.42;;;33.26;;
60641;SDS011;46837;52.446;-1.930;2024-03-08T02:40:07;50.28;;;32.70;;
60641;SDS011;46837;52.446;-1.930;2024-03-08T02:41:07;64.94;;;37.28;;
60641;SDS011;46837;52.446;-1.930;2024-03-08T02:42:07;54.36;;;35.42;;
60641;SDS011;46837;52.446;-1.930;2024-03-08T02:43:07;55.94;;;35.52;;
60641;SDS011;46837;52.446;-1.930;2024-03-08T02:44:07;54.68;;;35.24;;
60641;SDS011;46837;52.446;-1.930;2024-03-08T02:45:07;62.26;;;36.58;;
60641;SDS011;46837;52.446;-1.930;2024-03-08T02:46:07;56.92;;;36.12;;
60641;SDS011;46837;52.446;-1.930;2024-03-08T02:47:07;60.44;;;35.50;;
60641;SDS011;46837;52.446;-1.930;2024-03-08T02:48:07;54.74;;;34.44;;
60641;SDS011;46837;52.446;-1.930;2024-03-08T02:49:07;51.12;;;35.44;;
60641;SDS011;46837;52.446;-1.930;2024-03-08T02:50:08;57.14;;;36.60;;
60641;SDS011;46837;52.446;-1.930;2024-03-08T02:51:07;60.52;;;35.76;;
60641;SDS011;46837;52.446;-1.930;2024-03-08T02:52:07;60.18;;;38.18;;
60641;SDS011;46837;52.446;-1.930;2024-03-08T02:53:07;62.20;;;37.88;;
60641;SDS011;46837;52.446;-1.930;2024-03-08T02:54:07;57.94;;;36.24;;
60641;SDS011;46837;52.446;-1.930;2024-03-08T02:55:07;56.92;;;34.68;;
60641;SDS011;46837;52.446;-1.930;2024-03-08T02:56:09;65.52;;;38.80;;
60641;SDS011;46837;52.446;-1.930;2024-03-08T02:57:08;53.98;;;34.86;;
60641;SDS011;46837;52.446;-1.930;2024-03-08T02:58:07;58.28;;;34.58;;
60641;SDS011;46837;52.446;-1.930;2024-03-08T02:59:07;53.08;;;35.12;;
60641;SDS011;46837;52.446;-1.930;2024-03-08T03:00:07;61.40;;;34.40;;
60641;SDS011;46837;52.446;-1.930;2024-03-08T03:01:07;60.26;;;36.26;;
60641;SDS011;46837;52.446;-1.930;2024-03-08T03:02:07;51.28;;;35.18;;
60641;SDS011;46837;52.446;-1.930;2024-03-08T03:03:07;58.08;;;34.36;;
60641;SDS011;46837;52.446;-1.930;2024-03-08T03:04:07;58.80;;;36.30;;
60641;SDS011;46837;52.446;-1.930;2024-03-08T03:05:07;62.54;;;38.54;;
60641;SDS011;46837;52.446;-1.930;2024-03-08T03:06:08;59.16;;;37.90;;
60641;SDS011;46837;52.446;-1.930;2024-03-08T03:07:07;59.38;;;37.40;;
60641;SDS011;46837;52.446;-1.930;2024-03-08T03:08:09;57.70;;;37.76;;
60641;SDS011;46837;52.446;-1.930;2024-03-08T03:09:07;66.76;;;38.38;;
60641;SDS011;46837;52.446;-1.930;2024-03-08T03:10:07;53.14;;;35.06;;
60641;SDS011;46837;52.446;-1.930;2024-03-08T03:11:07;53.22;;;36.56;;
60641;SDS011;46837;52.446;-1.930;2024-03-08T03:12:08;63.44;;;38.46;;
60641;SDS011;46837;52.446;-1.930;2024-03-08T03:13:07;58.36;;;36.88;;
60641;SDS011;46837;52.446;-1.930;2024-03-08T03:14:10;58.20;;;37.46;;
60641;SDS011;46837;52.446;-1.930;2024-03-08T03:15:07;61.30;;;37.54;;
60641;SDS011;46837;52.446;-1.930;2024-03-08T03:16:07;60.54;;;35.48;;
60641;SDS011;46837;52.446;-1.930;2024-03-08T03:17:07;51.72;;;33.12;;
60641;SDS011;46837;52.446;-1.930;2024-03-08T03:18:08;61.22;;;36.76;;
60641;SDS011;46837;52.446;-1.930;2024-03-08T03:19:07;56.48;;;37.76;;
60641;SDS011;46837;52.446;-1.930;2024-03-08T03:20:10;61.76;;;36.12;;
60641;SDS011;46837;52.446;-1.930;2024-03-08T03:21:08;53.42;;;35.40;;
60641;SDS011;46837;52.446;-1.930;2024-03-08T03:22:07;58.26;;;35.58;;
60641;SDS011;46837;52.446;-1.930;2024-03-08T03:23:07;56.98;;;35.78;;
60641;SDS011;46837;52.446;-1.930;2024-03-08T03:24:10;65.12;;;38.64;;
60641;SDS011;46837;52.446;-1.930;2024-03-08T03:25:09;54.14;;;33.78;;
60641;SDS011;46837;52.446;-1.930;2024-03-08T03:26:08;58.74;;;37.10;;
60641;SDS011;46837;52.446;-1.930;2024-03-08T03:27:11;52.60;;;35.26;;
60641;SDS011;46837;52.446;-1.930;2024-03-08T03:28:08;60.06;;;35.80;;
60641;SDS011;46837;52.446;-1.930;2024-03-08T03:29:07;51.82;;;36.16;;
60641;SDS011;46837;52.446;-1.930;2024-03-08T03:30:11;56.10;;;34.62;;
60641;SDS011;46837;52.446;-1.930;2024-03-08T03:31:07;59.54;;;36.22;;
60641;SDS011;46837;52.446;-1.930;2024-03-08T03:32:07;55.42;;;35.68;;
60641;SDS011;46837;52.446;-1.930;2024-03-08T03:33:08;54.10;;;30.02;;
60641;SDS011;46837;52.446;-1.930;2024-03-08T03:34:09;50.84;;;31.74;;
60641;SDS011;46837;52.446;-1.930;2024-03-08T03:35:07;59.54;;;37.32;;
60641;SDS011;46837;52.446;-1.930;2024-03-08T03:36:07;60.38;;;36.02;;
60641;SDS011;46837;52.446;-1.930;2024-03-08T03:37:07;61.58;;;37.86;;
60641;SDS011;46837;52.446;-1.930;2024-03-08T03:38:08;56.28;;;38.42;;
60641;SDS011;46837;52.446;-1.930;2024-03-08T03:39:11;53.54;;;35.94;;
60641;SDS011;46837;52.446;-1.930;2024-03-08T03:40:07;60.34;;;34.92;;
60641;SDS011;46837;52.446;-1.930;2024-03-08T03:41:11;53.62;;;35.52;;
60641;SDS011;46837;52.446;-1.930;2024-03-08T03:42:07;56.44;;;36.10;;
60641;SDS011;46837;52.446;-1.930;2024-03-08T03:43:07;53.14;;;36.12;;
60641;SDS011;46837;52.446;-1.930;2024-03-08T03:44:07;55.86;;;38.36;;
60641;SDS011;46837;52.446;-1.930;2024-03-08T03:45:07;57.14;;;36.82;;
60641;SDS011;46837;52.446;-1.930;2024-03-08T03:46:07;56.08;;;35.80;;
60641;SDS011;46837;52.446;-1.930;2024-03-08T03:47:07;57.58;;;36.52;;
60641;SDS011;46837;52.446;-1.930;2024-03-08T03:48:07;54.18;;;34.50;;
60641;SDS011;46837;52.446;-1.930;2024-03-08T03:49:07;60.48;;;35.20;;
60641;SDS011;46837;52.446;-1.930;2024-03-08T03:50:07;53.40;;;35.22;;
60641;SDS011;46837;52.446;-1.930;2024-03-08T03:51:07;52.30;;;34.28;;
60641;SDS011;46837;52.446;-1.930;2024-03-08T03:52:07;52.88;;;36.12;;
60641;SDS011;46837;52.446;-1.930;2024-03-08T03:53:08;53.94;;;33.48;;
60641;SDS011;46837;52.446;-1.930;2024-03-08T03:54:07;55.20;;;35.04;;
60641;SDS011;46837;52.446;-1.930;2024-03-08T03:55:07;46.80;;;30.16;;
60641;SDS011;46837;52.446;-1.930;2024-03-08T03:56:07;52.78;;;34.14;;
60641;SDS011;46837;52.446;-1.930;2024-03-08T03:57:07;56.10;;;30.90;;
60641;SDS011;46837;52.446;-1.930;2024-03-08T03:58:07;54.94;;;32.48;;
60641;SDS011;46837;52.446;-1.930;2024-03-08T03:59:07;55.80;;;36.48;;
60641;SDS011;46837;52.446;-1.930;2024-03-08T04:00:07;52.86;;;31.98;;
60641;SDS011;46837;52.446;-1.930;2024-03-08T04:01:07;54.36;;;35.22;;
60641;SDS011;46837;52.446;-1.930;2024-03-08T04:02:07;55.92;;;32.32;;
60641;SDS011;46837;52.446;-1.930;2024-03-08T04:03:07;55.76;;;35.88;;
60641;SDS011;46837;52.446;-1.930;2024-03-08T04:04:07;71.20;;;39.08;;
60641;SDS011;46837;52.446;-1.930;2024-03-08T04:05:07;54.00;;;34.58;;
60641;SDS011;46837;52.446;-1.930;2024-03-08T04:06:07;57.70;;;35.98;;
60641;SDS011;46837;52.446;-1.930;2024-03-08T04:07:07;50.60;;;34.28;;
60641;SDS011;46837;52.446;-1.930;2024-03-08T04:08:07;53.48;;;34.58;;
60641;SDS011;46837;52.446;-1.930;2024-03-08T04:09:07;63.32;;;34.78;;
60641;SDS011;46837;52.446;-1.930;2024-03-08T04:10:07;51.12;;;32.50;;
60641;SDS011;46837;52.446;-1.930;2024-03-08T04:11:07;54.42;;;32.52;;
60641;SDS011;46837;52.446;-1.930;2024-03-08T04:12:07;57.82;;;35.60;;
60641;SDS011;46837;52.446;-1.930;2024-03-08T04:13:07;55.02;;;34.46;;
60641;SDS011;46837;52.446;-1.930;2024-03-08T04:14:07;48.76;;;32.10;;
60641;SDS011;46837;52.446;-1.930;2024-03-08T04:15:08;57.46;;;33.16;;
60641;SDS011;46837;52.446;-1.930;2024-03-08T04:16:08;48.48;;;29.64;;
60641;SDS011;46837;52.446;-1.930;2024-03-08T04:17:07;49.10;;;33.64;;
60641;SDS011;46837;52.446;-1.930;2024-03-08T04:18:07;53.06;;;33.40;;
60641;SDS011;46837;52.446;-1.930;2024-03-08T04:19:07;53.94;;;34.26;;
60641;SDS011;46837;52.446;-1.930;2024-03-08T04:20:10;53.28;;;32.74;;
60641;SDS011;46837;52.446;-1.930;2024-03-08T04:21:07;53.38;;;35.72;;
60641;SDS011;46837;52.446;-1.930;2024-03-08T04:22:07;51.40;;;35.10;;
60641;SDS011;46837;52.446;-1.930;2024-03-08T04:23:07;58.54;;;33.94;;
60641;SDS011;46837;52.446;-1.930;2024-03-08T04:24:07;53.00;;;33.18;;
60641;SDS011;46837;52.446;-1.930;2024-03-08T04:25:07;57.14;;;33.12;;
60641;SDS011;46837;52.446;-1.930;2024-03-08T04:26:07;49.08;;;32.48;;
60641;SDS011;46837;52.446;-1.930;2024-03-08T04:27:07;53.46;;;32.46;;
60641;SDS011;46837;52.446;-1.930;2024-03-08T04:28:07;55.12;;;32.84;;
60641;SDS011;46837;52.446;-1.930;2024-03-08T04:29:07;54.68;;;34.34;;
60641;SDS011;46837;52.446;-1.930;2024-03-08T04:30:08;57.92;;;35.62;;
60641;SDS011;46837;52.446;-1.930;2024-03-08T04:31:07;57.00;;;35.82;;
60641;SDS011;46837;52.446;-1.930;2024-03-08T04:32:07;52.00;;;33.08;;
60641;SDS011;46837;52.446;-1.930;2024-03-08T04:33:07;51.34;;;32.40;;
60641;SDS011;46837;52.446;-1.930;2024-03-08T04:34:07;56.44;;;33.62;;
60641;SDS011;46837;52.446;-1.930;2024-03-08T04:35:07;47.14;;;32.86;;
60641;SDS011;46837;52.446;-1.930;2024-03-08T04:36:07;52.54;;;34.02;;
60641;SDS011;46837;52.446;-1.930;2024-03-08T04:37:07;49.20;;;30.22;;
60641;SDS011;46837;52.446;-1.930;2024-03-08T04:38:07;50.28;;;33.54;;
60641;SDS011;46837;52.446;-1.930;2024-03-08T04:39:07;51.40;;;33.72;;
60641;SDS011;46837;52.446;-1.930;2024-03-08T04:40:07;47.08;;;30.56;;
60641;SDS011;46837;52.446;-1.930;2024-03-08T04:41:07;58.48;;;34.60;;
60641;SDS011;46837;52.446;-1.930;2024-03-08T04:42:07;56.94;;;33.88;;
60641;SDS011;46837;52.446;-1.930;2024-03-08T04:43:07;54.80;;;34.88;;
60641;SDS011;46837;52.446;-1.930;2024-03-08T04:44:07;61.48;;;35.28;;
60641;SDS011;46837;52.446;-1.930;2024-03-08T04:45:08;58.12;;;33.90;;
60641;SDS011;46837;52.446;-1.930;2024-03-08T04:46:07;55.10;;;33.38;;
60641;SDS011;46837;52.446;-1.930;2024-03-08T04:47:07;55.76;;;32.34;;
60641;SDS011;46837;52.446;-1.930;2024-03-08T04:48:07;51.38;;;30.64;;
60641;SDS011;46837;52.446;-1.930;2024-03-08T04:49:07;45.40;;;29.76;;
60641;SDS011;46837;52.446;-1.930;2024-03-08T04:50:07;52.36;;;33.34;;
60641;SDS011;46837;52.446;-1.930;2024-03-08T04:51:07;52.80;;;33.68;;
60641;SDS011;46837;52.446;-1.930;2024-03-08T04:52:07;50.92;;;31.78;;
60641;SDS011;46837;52.446;-1.930;2024-03-08T04:53:08;55.14;;;34.56;;
60641;SDS011;46837;52.446;-1.930;2024-03-08T04:54:07;54.96;;;34.64;;
60641;SDS011;46837;52.446;-1.930;2024-03-08T04:55:07;46.88;;;33.12;;
60641;SDS011;46837;52.446;-1.930;2024-03-08T04:56:07;55.38;;;33.84;;
60641;SDS011;46837;52.446;-1.930;2024-03-08T04:57:07;52.64;;;33.72;;
60641;SDS011;46837;52.446;-1.930;2024-03-08T04:58:08;49.86;;;33.76;;
60641;SDS011;46837;52.446;-1.930;2024-03-08T04:59:08;51.24;;;33.70;;
60641;SDS011;46837;52.446;-1.930;2024-03-08T05:00:11;61.10;;;35.66;;
60641;SDS011;46837;52.446;-1.930;2024-03-08T05:01:07;54.50;;;34.20;;
60641;SDS011;46837;52.446;-1.930;2024-03-08T05:02:07;53.76;;;32.42;;
60641;SDS011;46837;52.446;-1.930;2024-03-08T05:03:07;53.18;;;34.22;;
60641;SDS011;46837;52.446;-1.930;2024-03-08T05:04:07;50.38;;;34.12;;
60641;SDS011;46837;52.446;-1.930;2024-03-08T05:05:07;52.20;;;31.72;;
60641;SDS011;46837;52.446;-1.930;2024-03-08T05:06:07;55.00;;;34.14;;
60641;SDS011;46837;52.446;-1.930;2024-03-08T05:07:07;55.66;;;32.48;;
60641;SDS011;46837;52.446;-1.930;2024-03-08T05:08:07;69.50;;;35.50;;
60641;SDS011;46837;52.446;-1.930;2024-03-08T05:09:11;54.04;;;34.58;;
60641;SDS011;46837;52.446;-1.930;2024-03-08T05:10:07;51.26;;;32.32;;
60641;SDS011;46837;52.446;-1.930;2024-03-08T05:11:07;49.40;;;29.90;;
60641;SDS011;46837;52.446;-1.930;2024-03-08T05:12:07;44.84;;;31.78;;
60641;SDS011;46837;52.446;-1.930;2024-03-08T05:13:07;55.24;;;32.34;;
60641;SDS011;46837;52.446;-1.930;2024-03-08T05:14:07;53.96;;;33.42;;
60641;SDS011;46837;52.446;-1.930;2024-03-08T05:15:07;52.04;;;33.38;;
60641;SDS011;46837;52.446;-1.930;2024-03-08T05:16:07;52.88;;;33.18;;
60641;SDS011;46837;52.446;-1.930;2024-03-08T05:17:07;52.68;;;34.32;;
60641;SDS011;46837;52.446;-1.930;2024-03-08T05:18:07;53.22;;;33.16;;
60641;SDS011;46837;52.446;-1.930;2024-03-08T05:19:07;51.04;;;31.32;;
60641;SDS011;46837;52.446;-1.930;2024-03-08T05:20:09;57.26;;;33.62;;
60641;SDS011;46837;52.446;-1.930;2024-03-08T05:21:07;59.40;;;32.36;;
60641;SDS011;46837;52.446;-1.930;2024-03-08T05:22:07;49.76;;;31.94;;
60641;SDS011;46837;52.446;-1.930;2024-03-08T05:23:07;50.94;;;32.82;;
60641;SDS011;46837;52.446;-1.930;2024-03-08T05:24:07;57.36;;;34.90;;
60641;SDS011;46837;52.446;-1.930;2024-03-08T05:25:08;60.94;;;35.18;;
60641;SDS011;46837;52.446;-1.930;2024-03-08T05:26:07;55.56;;;33.94;;
60641;SDS011;46837;52.446;-1.930;2024-03-08T05:27:07;54.28;;;36.48;;
60641;SDS011;46837;52.446;-1.930;2024-03-08T05:28:07;52.70;;;34.12;;
60641;SDS011;46837;52.446;-1.930;2024-03-08T05:29:07;56.52;;;32.90;;
60641;SDS011;46837;52.446;-1.930;2024-03-08T05:30:07;55.80;;;34.16;;
60641;SDS011;46837;52.446;-1.930;2024-03-08T05:31:07;50.20;;;25.98;;
60641;SDS011;46837;52.446;-1.930;2024-03-08T05:32:07;54.92;;;35.76;;
60641;SDS011;46837;52.446;-1.930;2024-03-08T05:33:07;57.34;;;36.44;;
60641;SDS011;46837;52.446;-1.930;2024-03-08T05:34:07;49.32;;;30.32;;
60641;SDS011;46837;52.446;-1.930;2024-03-08T05:35:08;51.82;;;29.60;;
60641;SDS011;46837;52.446;-1.930;2024-03-08T05:36:07;58.34;;;37.52;;
60641;SDS011;46837;52.446;-1.930;2024-03-08T05:37:07;54.16;;;33.08;;
60641;SDS011;46837;52.446;-1.930;2024-03-08T05:38:07;56.98;;;32.66;;
60641;SDS011;46837;52.446;-1.930;2024-03-08T05:39:07;55.08;;;33.60;;
60641;SDS011;46837;52.446;-1.930;2024-03-08T05:40:09;58.34;;;35.38;;
60641;SDS011;46837;52.446;-1.930;2024-03-08T05:41:07;50.94;;;31.12;;
60641;SDS011;46837;52.446;-1.930;2024-03-08T05:42:07;55.82;;;34.80;;
60641;SDS011;46837;52.446;-1.930;2024-03-08T05:43:07;66.78;;;35.50;;
60641;SDS011;46837;52.446;-1.930;2024-03-08T05:44:07;57.96;;;34.14;;
60641;SDS011;46837;52.446;-1.930;2024-03-08T05:45:07;51.70;;;29.70;;
60641;SDS011;46837;52.446;-1.930;2024-03-08T05:46:07;56.70;;;35.36;;